Time;durP1;ratioP1;P1;durP2;ratioP2;P2;SDS_P1;SDS_P2;PMS_P1;PMS_P2;Temp;Humidity;BMP_temperature;BMP_pressure;BME280_temperature;BME280_humidity;BME280_pressure;Samples;Min_cycle;Max_cycle;Signal;HPM_P1;HPM_P2
2022/09/08 00:00:41;;;;;;;7.07;3.53;;;20.20;99.90;;;;;;5033102;28;20163;-48
2022/09/08 00:03:11;;;;;;;10.50;3.70;;;20.30;99.90;;;;;;5033169;28;20638;-50
2022/09/08 00:05:46;;;;;;;7.82;3.50;;;20.20;99.90;;;;;;5033361;28;20174;-50
2022/09/08 00:08:11;;;;;;;6.70;2.63;;;20.20;99.90;;;;;;5033372;28;20163;-50
2022/09/08 00:10:38;;;;;;;3.97;2.22;;;20.20;99.90;;;;;;5033136;28;20187;-50
2022/09/08 00:13:07;;;;;;;4.13;2.15;;;20.20;99.90;;;;;;5032574;28;20246;-50
2022/09/08 00:15:35;;;;;;;5.93;2.40;;;20.20;99.90;;;;;;5032974;28;20219;-49
2022/09/08 00:18:00;;;;;;;3.50;1.98;;;20.20;99.90;;;;;;5032868;28;20205;-50
2022/09/08 00:20:26;;;;;;;3.83;2.50;;;20.30;99.90;;;;;;5032800;28;20171;-49
2022/09/08 00:22:52;;;;;;;5.80;2.50;;;20.20;99.90;;;;;;5033558;28;20172;-49
2022/09/08 00:25:17;;;;;;;4.18;2.35;;;20.20;99.90;;;;;;5032929;28;20178;-50
2022/09/08 00:27:43;;;;;;;4.28;2.13;;;20.20;99.90;;;;;;5033163;28;20186;-50
2022/09/08 00:30:09;;;;;;;2.65;2.00;;;20.10;99.90;;;;;;5031721;28;20619;-50
2022/09/08 00:32:34;;;;;;;3.90;2.05;;;20.20;99.90;;;;;;5032745;28;20682;-50
2022/09/08 00:35:00;;;;;;;3.85;2.13;;;20.10;99.90;;;;;;5032821;28;20176;-50
2022/09/08 00:37:27;;;;;;;3.83;1.90;;;20.10;99.90;;;;;;5033017;28;20301;-50
2022/09/08 00:39:53;;;;;;;3.42;1.80;;;20.10;99.90;;;;;;5033112;28;20168;-50
2022/09/08 00:42:18;;;;;;;4.70;2.08;;;20.10;99.90;;;;;;5032497;28;20174;-50
2022/09/08 00:44:49;;;;;;;5.07;2.00;;;20.10;99.90;;;;;;5032670;28;20175;-50
2022/09/08 00:47:22;;;;;;;3.60;2.10;;;20.10;99.90;;;;;;5032955;28;20171;-50
2022/09/08 00:50:00;;;;;;;6.00;2.95;;;20.10;99.90;;;;;;5032715;28;20179;-50
2022/09/08 00:52:30;;;;;;;4.40;2.00;;;20.10;99.90;;;;;;5032435;28;20728;-50
2022/09/08 00:54:56;;;;;;;4.00;2.40;;;20.00;99.90;;;;;;5032435;28;20163;-49
2022/09/08 00:57:22;;;;;;;3.85;2.30;;;20.00;99.90;;;;;;5032793;28;20175;-49
2022/09/08 00:59:48;;;;;;;3.78;2.25;;;20.00;99.90;;;;;;5032210;28;20598;-49
2022/09/08 01:02:25;;;;;;;3.83;2.15;;;19.90;99.90;;;;;;5032385;28;20258;-49
2022/09/08 01:04:59;;;;;;;4.30;2.33;;;19.90;99.90;;;;;;5032520;28;20195;-50
2022/09/08 01:13:18;;;;;;;5.63;2.13;;;19.90;99.90;;;;;;5032414;28;20270;-49
2022/09/08 01:15:44;;;;;;;3.13;1.95;;;19.90;99.90;;;;;;5032051;28;20264;-50
2022/09/08 01:18:09;;;;;;;3.85;2.28;;;19.90;99.90;;;;;;5031970;28;20654;-50
2022/09/08 01:21:01;;;;;;;4.68;1.75;;;19.90;99.90;;;;;;5032040;28;20203;-50
2022/09/08 01:23:52;;;;;;;3.30;2.10;;;20.00;99.90;;;;;;5030748;28;20167;-50
2022/09/08 01:26:21;;;;;;;2.35;1.67;;;20.10;99.90;;;;;;5031929;28;20173;-49
2022/09/08 01:28:53;;;;;;;1.95;1.80;;;20.10;99.90;;;;;;5032213;28;20163;-49
2022/09/08 01:31:19;;;;;;;5.05;2.05;;;20.10;99.90;;;;;;5032126;28;20207;-49
2022/09/08 01:33:45;;;;;;;3.67;1.80;;;20.10;99.90;;;;;;5030536;28;20206;-49
2022/09/08 01:36:13;;;;;;;5.28;2.00;;;20.20;99.90;;;;;;5032120;28;20202;-49
2022/09/08 01:38:39;;;;;;;3.80;1.95;;;20.20;99.90;;;;;;5031869;28;20666;-53
2022/09/08 01:41:05;;;;;;;4.85;1.83;;;20.20;99.90;;;;;;5031760;28;20257;-50
2022/09/08 01:43:31;;;;;;;4.13;2.05;;;20.30;99.90;;;;;;5031825;28;20294;-50
2022/09/08 01:45:57;;;;;;;2.70;2.05;;;20.30;99.90;;;;;;5031816;28;20221;-50
2022/09/08 01:48:23;;;;;;;4.70;1.80;;;20.20;99.90;;;;;;5032285;28;20178;-50
2022/09/08 01:50:49;;;;;;;3.35;1.83;;;20.20;99.90;;;;;;5031608;28;20199;-50
2022/09/08 01:53:15;;;;;;;4.05;1.88;;;20.10;99.90;;;;;;5032507;28;20194;-51
2022/09/08 01:55:40;;;;;;;4.03;1.88;;;20.10;99.90;;;;;;5035885;28;20626;-50
2022/09/08 01:58:06;;;;;;;3.10;2.10;;;20.10;99.90;;;;;;5035798;28;20168;-51
2022/09/08 02:00:32;;;;;;;4.55;2.28;;;20.00;99.90;;;;;;5035651;28;20186;-50
2022/09/08 02:02:57;;;;;;;2.35;2.08;;;20.00;99.90;;;;;;5035682;28;20167;-50
2022/09/08 02:05:24;;;;;;;4.60;2.15;;;20.00;99.90;;;;;;5036191;28;20159;-50
2022/09/08 02:07:50;;;;;;;4.97;2.50;;;19.90;99.90;;;;;;5036123;28;20171;-50
2022/09/08 02:10:16;;;;;;;3.60;2.10;;;19.90;99.90;;;;;;5035566;28;20498;-50
2022/09/08 02:12:41;;;;;;;3.47;2.10;;;19.80;99.90;;;;;;5035492;28;20215;-50
2022/09/08 02:15:08;;;;;;;2.42;2.10;;;19.70;99.90;;;;;;5035346;28;20203;-50
2022/09/08 02:17:33;;;;;;;6.13;2.78;;;19.70;99.90;;;;;;5035361;28;20175;-50
2022/09/08 02:19:59;;;;;;;4.32;2.20;;;19.60;99.90;;;;;;5035386;28;20297;-49
2022/09/08 02:22:26;;;;;;;6.38;2.65;;;19.70;99.90;;;;;;5035540;28;20206;-50
2022/09/08 02:24:52;;;;;;;8.20;2.50;;;19.50;99.90;;;;;;5035660;28;20175;-49
2022/09/08 02:27:17;;;;;;;2.50;1.98;;;19.40;99.90;;;;;;5035226;28;20174;-50
2022/09/08 02:29:43;;;;;;;3.03;2.05;;;19.40;99.90;;;;;;5033891;28;20203;-51
2022/09/08 02:32:09;;;;;;;4.78;2.78;;;19.40;99.90;;;;;;5035008;28;20203;-50
2022/09/08 02:34:35;;;;;;;5.22;2.65;;;19.40;99.90;;;;;;5035320;28;20179;-50
2022/09/08 02:37:00;;;;;;;3.50;1.98;;;19.20;99.90;;;;;;5035037;28;20163;-50
2022/09/08 02:39:26;;;;;;;2.35;1.85;;;19.20;99.90;;;;;;5034948;28;20167;-50
2022/09/08 02:41:53;;;;;;;2.53;2.20;;;19.20;99.90;;;;;;5035498;28;20506;-51
2022/09/08 02:44:18;;;;;;;3.13;2.20;;;19.10;99.90;;;;;;5035137;28;20252;-50
2022/09/08 02:46:44;;;;;;;4.00;2.10;;;19.00;99.90;;;;;;5034903;28;20589;-51
2022/09/08 02:49:10;;;;;;;3.10;2.33;;;19.00;99.90;;;;;;5034830;28;20529;-51
2022/09/08 02:51:36;;;;;;;4.25;2.30;;;19.10;99.90;;;;;;5034706;28;20602;-51
2022/09/08 02:54:02;;;;;;;3.15;2.20;;;19.00;99.90;;;;;;5035045;28;20175;-51
2022/09/08 02:56:27;;;;;;;5.63;2.63;;;19.10;99.90;;;;;;5034675;28;20197;-51
2022/09/08 02:58:54;;;;;;;3.63;1.83;;;19.10;99.90;;;;;;5035070;28;20172;-51
2022/09/08 03:01:20;;;;;;;8.10;2.50;;;19.00;99.90;;;;;;5035195;28;20167;-51
2022/09/08 03:03:46;;;;;;;2.75;2.15;;;19.00;99.90;;;;;;5034539;28;20163;-51
2022/09/08 03:06:12;;;;;;;3.78;2.28;;;19.00;99.90;;;;;;5033019;28;20617;-51
2022/09/08 03:08:37;;;;;;;3.25;2.08;;;18.90;99.90;;;;;;5034509;28;20164;-51
2022/09/08 03:11:04;;;;;;;4.38;2.17;;;18.90;99.90;;;;;;5034308;28;20542;-51
2022/09/08 03:13:30;;;;;;;3.10;2.03;;;18.90;99.90;;;;;;5034382;28;20258;-50
2022/09/08 03:15:55;;;;;;;3.05;1.95;;;18.80;99.90;;;;;;5034190;28;20302;-50
2022/09/08 03:18:21;;;;;;;5.38;2.70;;;18.80;99.90;;;;;;5034570;28;20767;-50
2022/09/08 03:20:47;;;;;;;3.80;2.10;;;18.80;99.90;;;;;;5034210;28;20184;-50
2022/09/08 03:23:19;;;;;;;1.98;1.73;;;18.90;99.90;;;;;;5034620;28;20305;-50
2022/09/08 03:25:45;;;;;;;3.45;2.28;;;18.80;99.90;;;;;;5034086;28;20253;-50
2022/09/08 03:28:18;;;;;;;3.63;2.10;;;18.80;99.90;;;;;;5034311;28;20521;-51
2022/09/08 03:30:44;;;;;;;3.38;2.28;;;18.80;99.90;;;;;;5034350;28;20580;-52
2022/09/08 03:33:09;;;;;;;3.20;2.33;;;18.70;99.90;;;;;;5033965;28;20178;-51
2022/09/08 03:35:35;;;;;;;2.75;2.30;;;18.70;99.90;;;;;;5033981;28;20211;-51
2022/09/08 03:38:01;;;;;;;6.20;2.60;;;18.70;99.90;;;;;;5033951;28;20218;-50
2022/09/08 03:40:27;;;;;;;4.30;2.63;;;18.70;99.90;;;;;;5033680;28;20241;-50
2022/09/08 03:42:53;;;;;;;10.93;5.35;;;18.70;99.90;;;;;;5034094;28;20190;-50
2022/09/08 03:45:19;;;;;;;4.00;2.55;;;18.60;99.90;;;;;;5033730;28;20175;-51
2022/09/08 03:47:44;;;;;;;14.02;5.63;;;18.50;99.90;;;;;;5033767;28;20163;-51
2022/09/08 03:50:12;;;;;;;4.95;2.80;;;18.70;99.90;;;;;;5032341;28;20167;-50
2022/09/08 03:52:38;;;;;;;4.75;2.65;;;18.60;99.90;;;;;;5033498;28;20214;-50
2022/09/08 03:55:05;;;;;;;6.63;3.35;;;18.70;99.90;;;;;;5033831;28;20167;-50
2022/09/08 03:57:31;;;;;;;8.38;4.53;;;18.70;99.90;;;;;;5033629;28;20545;-50
2022/09/08 03:59:58;;;;;;;5.53;3.60;;;18.70;99.90;;;;;;5033532;28;20250;-50
2022/09/08 04:02:24;;;;;;;6.75;3.25;;;18.70;99.90;;;;;;5034009;28;20167;-50
2022/09/08 04:04:51;;;;;;;6.05;3.10;;;18.70;99.90;;;;;;5033690;28;20254;-50
2022/09/08 04:07:19;;;;;;;4.22;2.78;;;18.70;99.90;;;;;;5032069;28;20175;-50
2022/09/08 04:09:44;;;;;;;3.88;2.20;;;18.80;99.90;;;;;;5033300;28;20172;-50
2022/09/08 04:12:10;;;;;;;4.32;2.20;;;18.70;99.90;;;;;;5033243;28;20203;-50
2022/09/08 04:14:37;;;;;;;4.82;3.35;;;18.60;99.90;;;;;;5031817;28;20164;-50
2022/09/08 04:17:03;;;;;;;4.45;2.30;;;18.60;99.90;;;;;;5032799;28;20266;-50
2022/09/08 04:19:28;;;;;;;3.38;2.40;;;18.60;99.90;;;;;;5033145;28;20297;-51
2022/09/08 04:21:54;;;;;;;6.07;2.60;;;18.70;99.90;;;;;;5033065;28;20615;-50
2022/09/08 04:24:20;;;;;;;6.90;3.95;;;18.50;99.90;;;;;;5033376;28;20265;-50
2022/09/08 04:26:46;;;;;;;2.75;2.50;;;18.50;99.90;;;;;;5032958;28;20726;-49
2022/09/08 04:29:12;;;;;;;5.32;3.05;;;18.40;99.90;;;;;;5033162;28;20539;-51
2022/09/08 04:31:38;;;;;;;10.38;4.15;;;18.50;99.90;;;;;;5032659;28;20214;-50
2022/09/08 04:34:04;;;;;;;5.18;3.08;;;18.40;99.90;;;;;;5032893;28;20167;-51
2022/09/08 04:36:31;;;;;;;5.97;2.47;;;18.60;99.90;;;;;;5032719;28;20171;-51
2022/09/08 04:38:58;;;;;;;3.28;2.50;;;18.60;99.90;;;;;;5032774;28;20186;-51
2022/09/08 04:41:25;;;;;;;5.03;4.03;;;18.60;99.90;;;;;;5032612;28;20171;-50
2022/09/08 04:43:52;;;;;;;4.63;3.40;;;18.70;99.90;;;;;;5033005;28;20209;-51
2022/09/08 04:46:18;;;;;;;7.60;5.50;;;18.70;99.90;;;;;;5032841;28;20206;-50
2022/09/08 04:48:45;;;;;;;2.60;2.40;;;18.70;99.90;;;;;;5032652;28;21195;-51
2022/09/08 04:51:12;;;;;;;3.38;2.60;;;18.70;99.90;;;;;;5032462;28;20270;-52
2022/09/08 04:53:38;;;;;;;3.75;2.42;;;18.70;99.90;;;;;;5032479;28;20159;-51
2022/09/08 04:56:06;;;;;;;4.00;3.00;;;18.60;99.90;;;;;;5032750;28;20171;-51
2022/09/08 04:58:34;;;;;;;5.60;3.28;;;18.60;99.90;;;;;;5032380;28;20163;-51
2022/09/08 05:01:11;;;;;;;4.25;3.00;;;18.60;99.90;;;;;;5032338;28;20711;-50
2022/09/08 05:03:38;;;;;;;7.80;3.65;;;18.60;99.90;;;;;;5032254;28;20535;-51
2022/09/08 05:06:08;;;;;;;5.63;3.63;;;18.60;99.90;;;;;;5031045;28;20654;-51
2022/09/08 05:08:34;;;;;;;6.45;3.97;;;18.60;99.90;;;;;;5032209;28;20186;-53
2022/09/08 05:11:00;;;;;;;7.55;4.40;;;18.70;99.90;;;;;;5014482;28;20226;-51
2022/09/08 05:13:28;;;;;;;9.75;4.22;;;18.60;99.90;;;;;;5030948;28;20715;-51
2022/09/08 05:16:01;;;;;;;8.40;4.93;;;18.60;99.90;;;;;;5032145;28;20257;-52
2022/09/08 05:18:26;;;;;;;9.77;4.22;;;18.60;99.90;;;;;;5032408;28;20250;-52
2022/09/08 05:20:53;;;;;;;6.22;4.25;;;18.70;99.90;;;;;;5032526;28;20198;-52
2022/09/08 05:23:18;;;;;;;5.72;4.05;;;18.60;99.90;;;;;;5032327;28;20219;-52
2022/09/08 05:25:44;;;;;;;10.27;4.70;;;18.60;99.90;;;;;;5030779;28;20243;-51
2022/09/08 05:28:10;;;;;;;7.07;4.50;;;18.60;99.90;;;;;;5031188;28;20179;-53
2022/09/08 05:30:39;;;;;;;8.57;5.50;;;18.50;99.90;;;;;;5031822;28;20174;-52
2022/09/08 05:33:05;;;;;;;7.80;5.47;;;18.40;99.90;;;;;;5031931;28;20205;-53
2022/09/08 05:35:31;;;;;;;7.55;4.97;;;18.30;99.90;;;;;;5031762;28;20646;-53
2022/09/08 05:37:58;;;;;;;7.50;5.25;;;18.20;99.90;;;;;;5031897;28;20251;-52
2022/09/08 05:40:24;;;;;;;5.35;4.78;;;18.10;99.90;;;;;;5031752;28;20168;-53
2022/09/08 05:42:50;;;;;;;11.57;5.18;;;18.00;99.90;;;;;;5032051;28;20225;-53
2022/09/08 05:45:15;;;;;;;7.35;5.05;;;17.90;99.90;;;;;;5031769;28;20164;-53
2022/09/08 05:47:41;;;;;;;9.57;4.60;;;17.90;99.90;;;;;;5031582;28;20195;-52
2022/09/08 05:50:06;;;;;;;6.22;3.83;;;17.90;99.90;;;;;;5031554;28;20172;-52
2022/09/08 05:52:32;;;;;;;13.93;4.63;;;17.90;99.90;;;;;;5031533;28;20211;-52
2022/09/08 05:54:57;;;;;;;7.35;4.78;;;18.00;99.90;;;;;;5031563;28;20209;-51
2022/09/08 05:57:23;;;;;;;6.63;4.30;;;18.10;99.90;;;;;;5031700;28;20222;-52
2022/09/08 05:59:49;;;;;;;9.77;4.28;;;18.00;99.90;;;;;;5031912;28;20167;-52
2022/09/08 06:02:14;;;;;;;6.95;3.72;;;18.10;99.90;;;;;;5031839;28;20175;-52
2022/09/08 06:04:40;;;;;;;11.32;4.15;;;18.00;99.90;;;;;;5031450;28;20535;-52
2022/09/08 06:07:06;;;;;;;8.10;4.28;;;18.00;99.90;;;;;;5031487;28;20213;-52
2022/09/08 06:09:32;;;;;;;9.18;3.60;;;18.10;99.90;;;;;;5031435;28;20690;-52
2022/09/08 06:11:57;;;;;;;8.32;3.70;;;18.10;99.90;;;;;;5031354;28;20235;-52
2022/09/08 06:14:23;;;;;;;6.70;3.72;;;18.20;99.90;;;;;;5031817;28;20163;-52
2022/09/08 06:16:48;;;;;;;9.60;4.45;;;18.10;99.90;;;;;;5031582;28;20293;-52
2022/09/08 06:19:14;;;;;;;5.50;3.38;;;18.00;99.90;;;;;;5031408;28;20171;-52
2022/09/08 06:21:39;;;;;;;6.13;3.78;;;18.00;99.90;;;;;;5031352;28;20167;-52
2022/09/08 06:24:05;;;;;;;6.75;4.13;;;18.00;99.90;;;;;;5031364;28;20296;-51
2022/09/08 06:26:41;;;;;;;8.52;3.92;;;17.90;99.90;;;;;;5031366;28;20174;-51
2022/09/08 06:29:13;;;;;;;5.18;3.20;;;17.80;99.90;;;;;;5031332;28;20294;-52
2022/09/08 06:31:48;;;;;;;8.32;3.70;;;17.90;99.90;;;;;;5031197;28;20213;-52
2022/09/08 06:34:19;;;;;;;7.47;3.42;;;17.90;99.90;;;;;;5031434;28;20163;-52
2022/09/08 06:37:09;;;;;;;8.98;3.63;;;17.90;99.90;;;;;;5031496;28;20175;-52
2022/09/08 06:39:43;;;;;;;6.82;3.17;;;17.90;99.90;;;;;;5032600;28;20167;-51
2022/09/08 06:42:24;;;;;;;7.00;3.20;;;17.90;99.90;;;;;;5034744;28;20167;-51
2022/09/08 06:44:52;;;;;;;6.18;3.83;;;17.90;99.90;;;;;;5035355;28;20170;-51
2022/09/08 06:47:26;;;;;;;6.20;2.90;;;17.90;99.90;;;;;;5034765;28;20164;-51
2022/09/08 06:49:52;;;;;;;5.70;2.80;;;17.70;99.90;;;;;;5035040;28;20181;-51
2022/09/08 06:52:34;;;;;;;6.07;3.30;;;17.70;99.90;;;;;;5034578;28;20207;-51
2022/09/08 06:55:36;;;;;;;4.93;3.53;;;17.80;99.90;;;;;;5034595;28;20167;-51
2022/09/08 06:58:19;;;;;;;4.22;2.95;;;17.70;99.90;;;;;;5034601;28;20171;-51
2022/09/08 07:01:09;;;;;;;5.95;3.17;;;17.70;99.90;;;;;;5034543;28;20274;-51
2022/09/08 07:04:09;;;;;;;3.97;2.88;;;17.70;99.90;;;;;;5034459;28;20172;-51
2022/09/08 07:07:04;;;;;;;3.75;2.28;;;17.70;99.90;;;;;;5034467;28;20195;-51
2022/09/08 07:09:44;;;;;;;3.63;2.60;;;17.70;99.90;;;;;;5034301;28;20202;-51
2022/09/08 07:12:32;;;;;;;4.00;2.28;;;17.60;99.90;;;;;;5034238;28;20214;-51
2022/09/08 07:15:19;;;;;;;4.68;2.50;;;17.60;99.90;;;;;;5032838;28;20207;-52
2022/09/08 07:17:55;;;;;;;3.28;2.28;;;17.60;99.90;;;;;;5034241;28;20198;-52
2022/09/08 07:20:20;;;;;;;4.00;1.92;;;17.60;99.90;;;;;;5034535;28;20619;-51
2022/09/08 07:23:03;;;;;;;4.43;2.17;;;17.60;99.90;;;;;;5033982;28;20167;-51
2022/09/08 07:25:44;;;;;;;4.80;2.55;;;17.50;99.90;;;;;;5033876;28;20163;-51
2022/09/08 07:28:12;;;;;;;2.03;1.90;;;17.50;99.90;;;;;;5033766;28;20168;-51
2022/09/08 07:30:39;;;;;;;6.28;2.10;;;17.60;99.90;;;;;;5034110;28;20229;-51
2022/09/08 07:33:14;;;;;;;3.33;2.38;;;17.70;99.90;;;;;;5033826;28;20229;-51
2022/09/08 07:35:55;;;;;;;3.03;1.83;;;17.70;99.90;;;;;;5034173;28;20162;-51
2022/09/08 07:38:48;;;;;;;3.10;1.55;;;17.70;99.90;;;;;;5034199;28;20557;-51
2022/09/08 07:41:28;;;;;;;2.45;1.77;;;17.90;99.90;;;;;;5033719;28;20657;-52
2022/09/08 07:43:57;;;;;;;4.70;1.98;;;18.00;99.90;;;;;;5033717;28;20199;-51
2022/09/08 07:46:39;;;;;;;3.72;1.80;;;18.00;99.90;;;;;;5033942;28;20536;-51
2022/09/08 07:49:44;;;;;;;3.17;1.73;;;18.00;99.90;;;;;;5032124;28;20171;-52
2022/09/08 07:52:42;;;;;;;3.83;1.83;;;18.00;99.90;;;;;;5010964;28;20215;-50
2022/09/08 07:55:26;;;;;;;3.33;1.83;;;18.10;99.90;;;;;;5033439;28;20175;-48
2022/09/08 07:58:14;;;;;;;7.80;2.20;;;18.10;99.90;;;;;;5033954;28;20205;-51
2022/09/08 08:00:48;;;;;;;6.75;2.17;;;18.10;99.90;;;;;;5033524;28;20175;-51
2022/09/08 08:03:42;;;;;;;8.65;1.98;;;18.20;99.90;;;;;;5048726;28;20177;-50
2022/09/08 08:06:38;;;;;;;3.13;1.90;;;18.40;99.90;;;;;;5052108;28;20159;-50
2022/09/08 08:09:22;;;;;;;5.47;2.15;;;18.60;99.90;;;;;;5052045;28;20221;-53
2022/09/08 08:12:08;;;;;;;3.80;1.60;;;18.60;99.90;;;;;;5052104;28;20206;-51
2022/09/08 08:14:40;;;;;;;2.53;1.90;;;18.60;99.90;;;;;;5051858;28;20166;-47
2022/09/08 08:17:18;;;;;;;2.80;1.60;;;18.50;99.90;;;;;;5051721;28;20175;-54
2022/09/08 08:19:58;;;;;;;3.08;2.00;;;18.60;99.90;;;;;;5051965;28;20562;-52
2022/09/08 08:22:35;;;;;;;5.05;2.08;;;18.70;99.90;;;;;;5051643;28;20193;-48
2022/09/08 08:25:09;;;;;;;3.03;1.80;;;18.70;99.90;;;;;;5051654;28;20265;-54
2022/09/08 08:27:40;;;;;;;2.72;1.88;;;18.90;99.90;;;;;;5051416;28;20537;-57
2022/09/08 08:30:21;;;;;;;3.20;1.83;;;19.00;99.90;;;;;;5051327;28;20167;-48
2022/09/08 08:33:22;;;;;;;6.43;1.95;;;19.20;99.90;;;;;;5051397;28;20237;-55
2022/09/08 08:35:53;;;;;;;5.78;1.90;;;19.40;99.90;;;;;;5039572;28;20182;-54
2022/09/08 08:38:25;;;;;;;4.05;2.08;;;19.30;99.90;;;;;;5050380;28;20201;-52
2022/09/08 08:40:56;;;;;;;3.53;2.05;;;19.20;99.90;;;;;;5051494;28;20610;-50
2022/09/08 08:43:36;;;;;;;2.67;1.50;;;19.00;99.90;;;;;;5051609;28;20170;-50
2022/09/08 08:46:11;;;;;;;3.85;1.38;;;19.10;99.90;;;;;;5051124;28;20163;-51
2022/09/08 08:49:01;;;;;;;2.30;1.30;;;19.00;99.90;;;;;;5051120;28;20173;-50
2022/09/08 08:51:45;;;;;;;4.05;1.40;;;19.00;99.90;;;;;;5050956;28;20214;-51
2022/09/08 08:54:21;;;;;;;1.85;1.27;;;19.20;99.90;;;;;;5051242;28;20182;-51
2022/09/08 08:57:27;;;;;;;3.63;1.42;;;19.10;99.90;;;;;;5051356;28;20162;-51
2022/09/08 09:00:20;;;;;;;3.08;1.45;;;19.00;99.90;;;;;;5050928;28;20526;-50
2022/09/08 09:03:00;;;;;;;2.55;1.27;;;19.00;99.90;;;;;;5050798;28;20583;-49
2022/09/08 09:06:22;;;;;;;2.50;1.30;;;20.10;99.90;;;;;;5051401;28;20201;-49
2022/09/08 09:08:59;;;;;;;2.72;1.30;;;18.80;99.90;;;;;;5029029;28;20175;-48
2022/09/08 09:11:44;;;;;;;2.78;1.30;;;18.80;99.90;;;;;;5028580;28;20218;-50
2022/09/08 09:14:39;;;;;;;4.65;1.30;;;19.10;99.90;;;;;;5046096;28;20182;-51
2022/09/08 09:17:22;;;;;;;3.00;1.38;;;19.40;99.90;;;;;;5050675;28;20179;-50
2022/09/08 09:20:17;;;;;;;5.43;1.23;;;19.50;99.90;;;;;;5050852;28;20162;-50
2022/09/08 09:22:52;;;;;;;2.75;1.38;;;19.50;99.90;;;;;;5050613;28;20236;-51
2022/09/08 09:25:20;;;;;;;2.50;1.38;;;19.30;99.90;;;;;;5050842;28;20169;-51
2022/09/08 09:27:52;;;;;;;2.10;1.20;;;19.70;99.90;;;;;;5050492;28;20211;-51
2022/09/08 09:30:22;;;;;;;2.47;1.35;;;20.10;99.90;;;;;;5050970;28;20216;-50
2022/09/08 09:33:26;;;;;;;2.28;1.10;;;20.10;99.90;;;;;;5050734;28;20218;-50
2022/09/08 09:35:57;;;;;;;2.63;1.20;;;20.00;99.90;;;;;;5050686;28;20216;-50
2022/09/08 09:38:38;;;;;;;2.28;1.40;;;20.00;99.90;;;;;;5050434;28;20198;-49
2022/09/08 09:41:07;;;;;;;4.32;1.30;;;20.00;99.90;;;;;;5050441;28;20167;-50
2022/09/08 09:43:42;;;;;;;2.70;1.00;;;19.80;99.90;;;;;;5050302;28;20175;-51
2022/09/08 09:46:36;;;;;;;2.28;1.40;;;19.70;99.90;;;;;;5050510;28;20576;-50
2022/09/08 09:49:39;;;;;;;3.97;1.38;;;19.90;99.90;;;;;;5045717;28;20186;-51
2022/09/08 09:52:17;;;;;;;3.42;1.40;;;20.10;99.90;;;;;;5050095;28;20201;-50
2022/09/08 09:54:43;;;;;;;2.55;1.40;;;20.10;99.90;;;;;;5050271;28;20163;-49
2022/09/08 09:57:43;;;;;;;3.15;1.42;;;20.30;99.90;;;;;;5050214;28;20171;-50
2022/09/08 10:00:19;;;;;;;3.75;1.50;;;20.40;99.90;;;;;;5050122;28;20551;-50
2022/09/08 10:02:47;;;;;;;1.90;1.20;;;20.40;99.90;;;;;;5050156;28;20197;-50
2022/09/08 10:06:00;;;;;;;2.10;1.27;;;20.30;99.90;;;;;;5050188;28;20171;-50
2022/09/08 10:08:51;;;;;;;1.48;1.20;;;20.20;99.90;;;;;;5050167;28;20174;-50
2022/09/08 10:11:38;;;;;;;3.97;1.38;;;20.30;99.90;;;;;;5050091;28;20245;-50
2022/09/08 10:14:25;;;;;;;2.17;1.30;;;20.20;99.90;;;;;;5050367;28;20167;-50
2022/09/08 10:17:26;;;;;;;4.28;1.80;;;20.00;99.90;;;;;;5054217;28;20287;-50
2022/09/08 10:20:20;;;;;;;2.45;1.58;;;20.40;99.90;;;;;;5042154;28;20206;-50
2022/09/08 10:23:27;;;;;;;2.35;1.42;;;20.80;99.90;;;;;;5053964;28;20265;-51
2022/09/08 10:25:58;;;;;;;6.25;1.70;;;20.70;99.90;;;;;;5053887;28;20177;-49
2022/09/08 10:28:27;;;;;;;1.73;1.40;;;21.00;99.90;;;;;;5052613;28;20167;-50
2022/09/08 10:31:28;;;;;;;3.90;1.70;;;21.30;99.90;;;;;;5053967;28;20175;-50
2022/09/08 10:34:22;;;;;;;2.47;1.58;;;21.50;99.90;;;;;;5053936;28;20170;-49
2022/09/08 10:37:22;;;;;;;3.55;1.92;;;22.00;99.90;;;;;;5053976;28;20171;-51
2022/09/08 10:40:25;;;;;;;2.40;1.33;;;21.90;99.90;;;;;;5053630;28;20282;-51
2022/09/08 10:42:54;;;;;;;4.30;1.58;;;22.10;99.90;;;;;;5054107;28;20185;-50
2022/09/08 10:45:55;;;;;;;3.03;1.40;;;22.00;99.90;;;;;;5053915;28;20171;-51
2022/09/08 10:48:39;;;;;;;2.88;1.38;;;21.50;99.90;;;;;;5053790;28;20170;-51
2022/09/08 10:51:36;;;;;;;1.40;0.98;;;22.00;99.90;;;;;;5053225;28;20202;-50
2022/09/08 10:54:39;;;;;;;5.82;1.25;;;22.30;99.90;;;;;;5053504;28;20285;-50
2022/09/08 10:57:42;;;;;;;2.25;1.30;;;22.60;99.90;;;;;;5053286;28;20224;-50
2022/09/08 11:00:18;;;;;;;2.95;1.52;;;22.60;99.90;;;;;;5053151;28;20626;-50
2022/09/08 11:03:02;;;;;;;2.05;1.30;;;22.80;99.90;;;;;;5053116;28;20640;-50
2022/09/08 11:05:51;;;;;;;1.73;1.27;;;22.50;99.90;;;;;;5053129;28;20163;-50
2022/09/08 11:08:38;;;;;;;1.45;1.08;;;22.30;99.90;;;;;;5053398;28;20170;-50
2022/09/08 11:11:25;;;;;;;2.55;1.15;;;22.40;99.90;;;;;;5053207;28;20233;-51
2022/09/08 11:14:02;;;;;;;2.00;1.20;;;22.50;99.90;;;;;;5053424;28;20265;-50
2022/09/08 11:16:38;;;;;;;1.58;1.00;;;22.40;99.90;;;;;;5052823;28;20741;-50
2022/09/08 11:19:27;;;;;;;1.27;1.10;;;22.50;99.90;;;;;;5053082;28;20181;-50
2022/09/08 11:22:08;;;;;;;1.10;0.90;;;22.10;99.90;;;;;;5052849;28;20666;-50
2022/09/08 11:24:53;;;;;;;0.80;0.77;;;21.90;99.90;;;;;;5052730;28;20257;-50
2022/09/08 11:27:45;;;;;;;1.45;0.82;;;21.50;99.90;;;;;;5040525;28;20197;-50
2022/09/08 11:30:22;;;;;;;1.20;0.88;;;21.40;99.90;;;;;;5052592;28;20766;-51
2022/09/08 11:33:02;;;;;;;2.00;0.68;;;21.30;99.90;;;;;;5053113;28;20221;-51
2022/09/08 11:35:37;;;;;;;1.75;0.65;;;21.10;99.90;;;;;;5052521;28;20206;-51
2022/09/08 11:38:30;;;;;;;0.73;0.60;;;21.40;99.90;;;;;;5052383;28;20174;-51
2022/09/08 11:41:15;;;;;;;0.88;0.55;;;21.30;99.90;;;;;;5051218;28;20159;-51
2022/09/08 11:44:12;;;;;;;1.30;0.57;;;21.10;99.90;;;;;;5052363;28;20212;-51
2022/09/08 11:46:46;;;;;;;2.28;0.80;;;20.90;99.90;;;;;;5052362;28;20162;-51
2022/09/08 11:49:51;;;;;;;0.90;0.70;;;21.30;99.90;;;;;;5052313;28;20171;-50
2022/09/08 11:52:48;;;;;;;2.38;1.02;;;22.40;99.90;;;;;;5052540;28;20206;-50
2022/09/08 11:55:37;;;;;;;1.95;0.88;;;22.60;99.90;;;;;;5052137;28;20166;-51
2022/09/08 11:58:23;;;;;;;1.42;0.82;;;22.20;99.90;;;;;;5052145;28;20577;-51
2022/09/08 12:01:16;;;;;;;2.05;1.25;;;22.40;99.90;;;;;;5052546;28;20275;-50
2022/09/08 12:04:29;;;;;;;1.30;0.75;;;22.50;99.90;;;;;;5052200;28;20170;-51
2022/09/08 12:07:03;;;;;;;2.85;0.73;;;22.50;99.90;;;;;;5063960;28;20186;-50
2022/09/08 12:09:53;;;;;;;2.15;0.90;;;22.80;99.90;;;;;;5032294;28;20191;-50
2022/09/08 12:12:33;;;;;;;0.93;0.80;;;22.90;99.90;;;;;;5032271;28;20685;-51
2022/09/08 12:15:12;;;;;;;1.77;1.00;;;22.70;99.90;;;;;;5031924;28;20222;-51
2022/09/08 12:17:59;;;;;;;2.20;1.08;;;22.60;99.90;;;;;;5031943;28;20179;-51
2022/09/08 12:20:38;;;;;;;1.45;0.68;;;22.80;99.90;;;;;;5032094;28;20170;-51
2022/09/08 12:23:09;;;;;;;2.13;1.00;;;22.80;99.90;;;;;;5031778;28;20650;-50
2022/09/08 12:26:05;;;;;;;2.42;1.40;;;22.90;99.90;;;;;;5031641;28;20761;-51
2022/09/08 12:28:53;;;;;;;4.00;1.10;;;23.20;99.90;;;;;;5031648;28;20168;-51
2022/09/08 12:31:33;;;;;;;2.05;1.15;;;23.20;99.90;;;;;;5032069;28;20215;-51
2022/09/08 12:34:05;;;;;;;2.17;0.93;;;23.20;99.90;;;;;;5031662;28;20167;-50
2022/09/08 12:36:40;;;;;;;4.55;1.02;;;23.00;99.90;;;;;;5030204;28;20182;-51
2022/09/08 12:39:27;;;;;;;1.67;1.15;;;23.30;99.90;;;;;;5031296;28;20159;-51
2022/09/08 12:42:12;;;;;;;1.05;0.95;;;23.20;99.90;;;;;;5029979;28;20662;-50
2022/09/08 12:45:22;;;;;;;1.17;0.70;;;23.10;99.90;;;;;;5031166;28;21087;-50
2022/09/08 12:48:16;;;;;;;2.88;1.30;;;23.10;99.90;;;;;;5029390;28;20187;-50
2022/09/08 12:50:46;;;;;;;0.75;0.73;;;23.60;99.90;;;;;;5031063;28;20580;-51
2022/09/08 12:53:12;;;;;;;2.58;1.05;;;23.70;99.90;;;;;;5031246;28;20187;-50
2022/09/08 12:55:49;;;;;;;1.70;0.68;;;23.80;99.90;;;;;;5031049;28;20533;-51
2022/09/08 12:58:23;;;;;;;4.50;1.40;;;23.60;99.90;;;;;;5031153;28;20170;-50
2022/09/08 13:01:26;;;;;;;0.88;0.85;;;23.60;99.90;;;;;;5031290;28;20206;-51
2022/09/08 13:03:57;;;;;;;3.83;1.15;;;23.40;99.90;;;;;;5009786;28;20528;-50
2022/09/08 13:06:41;;;;;;;1.33;0.90;;;23.40;99.90;;;;;;5030994;28;20643;-50
2022/09/08 13:09:26;;;;;;;2.42;0.77;;;23.50;99.90;;;;;;5030999;28;20547;-50
2022/09/08 13:12:41;;;;;;;2.78;1.10;;;23.80;99.90;;;;;;5030728;28;20191;-50
2022/09/08 13:15:06;;;;;;;1.17;0.95;;;23.80;99.90;;;;;;5030626;28;20215;-50
2022/09/08 13:17:39;;;;;;;1.35;0.90;;;23.10;99.90;;;;;;5030943;28;20400;-51
2022/09/08 13:20:35;;;;;;;1.98;1.02;;;22.70;99.90;;;;;;5030642;28;20167;-50
2022/09/08 13:23:41;;;;;;;2.67;0.88;;;22.90;99.90;;;;;;5029467;28;20168;-50
2022/09/08 13:26:49;;;;;;;3.05;1.27;;;23.10;99.90;;;;;;5030564;28;20228;-50
2022/09/08 13:29:46;;;;;;;1.98;0.90;;;22.80;99.90;;;;;;5030823;28;20194;-51
2022/09/08 13:32:36;;;;;;;2.72;1.20;;;22.70;99.90;;;;;;5029222;28;20675;-51
2022/09/08 13:35:35;;;;;;;2.40;1.10;;;22.50;99.90;;;;;;5030651;28;20199;-51